Time,TemperatureF,DewpointF,PressureIn,WindDirection,WindDirectionDegrees,WindSpeedMPH,WindSpeedGustMPH,Humidity,HourlyPrecipIn,Conditions,Clouds,dailyrainin,SoftwareType,DateUTC
2013-08-15 00:12:00,60.0,50.0,30.13,WNW,296,1.0,4.0,69,0.00,,,0.00,,2013-08-15 04:12:00,
2013-08-15 00:23:00,59.0,49.0,30.13,West,268,1.0,4.0,70,0.00,,,0.00,,2013-08-15 04:23:00,
2013-08-15 00:43:00,59.0,50.0,30.13,West,281,1.0,5.0,71,0.00,,,0.00,,2013-08-15 04:43:00,
2013-08-15 00:52:00,59.0,50.0,30.14,WNW,289,0.0,3.0,72,0.00,,,0.00,,2013-08-15 04:52:00,
2013-08-15 01:12:00,58.0,49.0,30.14,West,263,2.0,8.0,73,0.00,,,0.00,,2013-08-15 05:12:00,
2013-08-15 01:22:00,58.0,49.0,30.14,West,281,1.0,3.0,73,0.00,,,0.00,,2013-08-15 05:22:00,
2013-08-15 01:42:00,58.0,50.0,30.14,WNW,286,1.0,4.0,74,0.00,,,0.00,,2013-08-15 05:42:00,
2013-08-15 01:52:00,58.0,50.0,30.14,WNW,299,1.0,8.0,74,0.00,,,0.00,,2013-08-15 05:52:00,
2013-08-15 02:11:00,58.0,49.0,30.14,SW,231,2.0,7.0,73,0.00,,,0.00,,2013-08-15 06:11:00,
2013-08-15 02:21:00,58.0,49.0,30.14,West,261,3.0,10.0,72,0.00,,,0.00,,2013-08-15 06:21:00,
2013-08-15 02:42:00,58.0,49.0,30.14,West,269,1.0,10.0,73,0.00,,,0.00,,2013-08-15 06:42:00,
2013-08-15 02:52:00,58.0,50.0,30.14,NW,322,2.0,7.0,74,0.00,,,0.00,,2013-08-15 06:52:00,
2013-08-15 03:11:00,57.0,49.0,30.14,West,269,1.0,5.0,75,0.00,,,0.00,,2013-08-15 07:11:00,
2013-08-15 03:21:00,57.0,50.0,30.14,West,260,1.0,7.0,76,0.00,,,0.00,,2013-08-15 07:21:00,
2013-08-15 03:42:00,56.0,49.0,30.14,West,267,1.0,4.0,77,0.00,,,0.00,,2013-08-15 07:42:00,
2013-08-15 03:52:00,56.0,49.0,30.14,West,271,0.0,4.0,78,0.00,,,0.00,,2013-08-15 07:52:00,
2013-08-15 04:11:00,56.0,49.0,30.14,WSW,244,1.0,4.0,78,0.00,,,0.00,,2013-08-15 08:11:00,
2013-08-15 04:21:00,56.0,49.0,30.14,WSW,244,1.0,4.0,78,0.00,,,0.00,,2013-08-15 08:21:00,
2013-08-15 04:42:00,55.0,49.0,30.14,WSW,255,1.0,6.0,80,0.00,,,0.00,,2013-08-15 08:42:00,
2013-08-15 04:52:00,55.0,49.0,30.14,WSW,258,1.0,4.0,81,0.00,,,0.00,,2013-08-15 08:52:00,
2013-08-15 05:11:00,55.0,50.0,30.14,WSW,258,0.0,3.0,82,0.00,,,0.00,,2013-08-15 09:11:00,
2013-08-15 05:21:00,54.0,49.0,30.14,WSW,258,0.0,3.0,82,0.00,,,0.00,,2013-08-15 09:21:00,
2013-08-15 05:42:00,54.0,49.0,30.15,West,269,2.0,7.0,83,0.00,,,0.00,,2013-08-15 09:42:00,
2013-08-15 05:53:00,54.0,49.0,30.15,SW,224,2.0,6.0,83,0.00,,,0.00,,2013-08-15 09:53:00,
2013-08-15 06:12:00,54.0,49.0,30.15,WSW,239,2.0,7.0,83,0.00,,,0.00,,2013-08-15 10:12:00,
2013-08-15 06:22:00,54.0,49.0,30.16,West,265,2.0,7.0,83,0.00,,,0.00,,2013-08-15 10:22:00,
2013-08-15 06:42:00,54.0,49.0,30.16,SW,221,2.0,7.0,83,0.00,,,0.00,,2013-08-15 10:42:00,
2013-08-15 06:52:00,54.0,49.0,30.16,WSW,252,2.0,6.0,83,0.00,,,0.00,,2013-08-15 10:52:00,
2013-08-15 07:12:00,54.0,49.0,30.17,WSW,237,3.0,9.0,84,0.00,,,0.00,,2013-08-15 11:12:00,
2013-08-15 07:22:00,54.0,49.0,30.17,NW,315,5.0,12.0,82,0.00,,,0.00,,2013-08-15 11:22:00,
2013-08-15 07:42:00,55.0,49.0,30.17,WNW,292,4.0,10.0,81,0.00,,,0.00,,2013-08-15 11:42:00,
2013-08-15 07:52:00,57.0,51.0,30.18,NW,304,5.0,12.0,79,0.00,,,0.00,,2013-08-15 11:52:00,
2013-08-15 08:11:00,58.0,50.0,30.18,West,262,3.0,10.0,75,0.00,,,0.00,,2013-08-15 12:11:00,
2013-08-15 08:21:00,59.0,50.0,30.19,WNW,286,3.0,11.0,73,0.00,,,0.00,,2013-08-15 12:21:00,
2013-08-15 08:42:00,59.0,50.0,30.19,NW,310,3.0,12.0,73,0.00,,,0.00,,2013-08-15 12:42:00,
2013-08-15 08:52:00,59.0,50.0,30.19,NW,310,3.0,12.0,73,0.00,,,0.00,,2013-08-15 12:52:00,
2013-08-15 09:11:00,61.0,52.0,30.19,WNW,298,4.0,12.0,71,0.00,,,0.00,,2013-08-15 13:11:00,
2013-08-15 09:21:00,63.0,53.0,30.19,West,259,2.0,7.0,69,0.00,,,0.00,,2013-08-15 13:21:00,
2013-08-15 09:42:00,64.0,53.0,30.19,NW,307,5.0,10.0,67,0.00,,,0.00,,2013-08-15 13:42:00,
2013-08-15 09:52:00,65.0,53.0,30.19,WSW,254,4.0,10.0,65,0.00,,,0.00,,2013-08-15 13:52:00,
2013-08-15 10:13:00,66.0,53.0,30.18,WNW,287,2.0,11.0,63,0.00,,,0.00,,2013-08-15 14:13:00,
2013-08-15 10:22:00,67.0,52.0,30.19,West,274,3.0,9.0,59,0.00,,,0.00,,2013-08-15 14:22:00,
2013-08-15 10:45:00,68.0,51.0,30.19,NW,312,3.0,11.0,55,0.00,,,0.00,,2013-08-15 14:45:00,
2013-08-15 10:54:00,69.0,51.0,30.19,NW,323,6.0,13.0,53,0.00,,,0.00,,2013-08-15 14:54:00,
2013-08-15 11:15:00,69.0,51.0,30.19,WNW,288,5.0,12.0,53,0.00,,,0.00,,2013-08-15 15:15:00,
2013-08-15 11:23:00,69.0,52.0,30.18,WSW,258,7.0,15.0,54,0.00,,,0.00,,2013-08-15 15:23:00,
2013-08-15 11:43:00,70.0,53.0,30.18,West,273,1.0,8.0,55,0.00,,,0.00,,2013-08-15 15:43:00,
2013-08-15 11:54:00,71.0,52.0,30.18,WNW,284,4.0,14.0,52,0.00,,,0.00,,2013-08-15 15:54:00,
2013-08-15 12:16:00,72.0,53.0,30.18,WNW,293,3.0,10.0,51,0.00,,,0.00,,2013-08-15 16:16:00,
2013-08-15 12:26:00,72.0,53.0,30.17,WSW,240,2.0,10.0,51,0.00,,,0.00,,2013-08-15 16:26:00,
2013-08-15 12:44:00,72.0,52.0,30.16,WNW,285,5.0,15.0,49,0.00,,,0.00,,2013-08-15 16:44:00,
2013-08-15 12:55:00,72.0,51.0,30.16,WSW,244,4.0,18.0,48,0.00,,,0.00,,2013-08-15 16:55:00,
2013-08-15 13:18:00,71.0,51.0,30.16,NW,307,2.0,17.0,49,0.00,,,0.00,,2013-08-15 17:18:00,
2013-08-15 13:31:00,71.0,-99.9,30.16,West,267,5.0,18.0,48,0.00,,,0.00,,2013-08-15 17:31:00,
2013-08-15 13:55:00,73.0,51.0,30.15,WSW,240,5.0,17.0,46,0.00,,,0.00,,2013-08-15 17:55:00,
2013-08-15 14:28:00,74.0,51.0,30.14,SW,235,5.0,14.0,44,0.00,,,0.00,,2013-08-15 18:28:00,
2013-08-15 14:36:00,-999.0,-99.9,30.14,NW,318,8.0,12.0,-999,0.00,,,0.00,,2013-08-15 18:36:00,
2013-08-15 14:49:00,73.0,51.0,30.14,WNW,290,4.0,14.0,46,0.00,,,0.00,,2013-08-15 18:49:00,
2013-08-15 15:06:00,-999.0,-99.9,30.14,West,277,5.0,15.0,-999,0.00,,,0.00,,2013-08-15 19:06:00,
2013-08-15 15:18:00,73.0,52.0,30.14,WNW,300,6.0,13.0,47,0.00,,,0.00,,2013-08-15 19:18:00,
2013-08-15 15:34:00,-999.0,-99.9,30.14,WNW,302,5.0,15.0,-999,-99.99,,,-99.99,,2013-08-15 19:34:00,
2013-08-15 15:49:00,75.0,52.0,30.13,WSW,251,6.0,14.0,44,0.00,,,0.00,,2013-08-15 19:49:00,
2013-08-15 16:06:00,74.0,51.0,30.13,West,266,8.0,19.0,44,0.00,,,0.00,,2013-08-15 20:06:00,
2013-08-15 16:18:00,74.0,51.0,30.13,West,265,5.0,11.0,45,0.00,,,0.00,,2013-08-15 20:18:00,
2013-08-15 16:33:00,74.0,52.0,30.12,West,267,5.0,18.0,46,0.00,,,0.00,,2013-08-15 20:33:00,
2013-08-15 16:55:00,74.0,50.0,30.12,WSW,250,5.0,13.0,43,0.00,,,0.00,,2013-08-15 20:55:00,
2013-08-15 17:17:00,73.0,50.0,30.12,West,271,5.0,16.0,44,0.00,,,0.00,,2013-08-15 21:17:00,
2013-08-15 17:41:00,73.0,50.0,30.11,West,271,3.0,14.0,45,0.00,,,0.00,,2013-08-15 21:41:00,
2013-08-15 17:57:00,73.0,50.0,30.12,WSW,253,7.0,20.0,44,0.00,,,0.00,,2013-08-15 21:57:00,
2013-08-15 18:17:00,73.0,49.0,30.12,WNW,283,9.0,16.0,43,0.00,,,0.00,,2013-08-15 22:17:00,
2013-08-15 18:29:00,73.0,49.0,30.12,West,261,6.0,15.0,43,0.00,,,0.00,,2013-08-15 22:29:00,
2013-08-15 18:58:00,73.0,50.0,30.12,NW,313,6.0,13.0,44,0.00,,,0.00,,2013-08-15 22:58:00,
2013-08-15 19:16:00,72.0,50.0,30.12,NW,309,7.0,13.0,46,0.00,,,0.00,,2013-08-15 23:16:00,
2013-08-15 19:35:00,-999.0,-99.9,30.12,WNW,293,4.0,16.0,48,0.00,,,0.00,,2013-08-15 23:35:00,
2013-08-15 19:48:00,71.0,49.0,30.13,WSW,248,5.0,13.0,46,0.00,,,0.00,,2013-08-15 23:48:00,
2013-08-15 19:55:00,71.0,49.0,30.13,West,273,8.0,14.0,46,0.00,,,0.00,,2013-08-15 23:55:00,
2013-08-15 20:12:00,70.0,49.0,30.13,WNW,283,6.0,15.0,48,0.00,,,0.00,,2013-08-16 00:12:00,
2013-08-15 20:24:00,70.0,50.0,30.14,West,263,3.0,11.0,49,0.00,,,0.00,,2013-08-16 00:24:00,
2013-08-15 20:46:00,69.0,50.0,30.14,West,277,3.0,9.0,51,0.00,,,0.00,,2013-08-16 00:46:00,
2013-08-15 20:52:00,68.0,51.0,30.15,West,279,1.0,9.0,54,0.00,,,0.00,,2013-08-16 00:52:00,
2013-08-15 21:21:00,68.0,51.0,30.15,West,273,3.0,12.0,55,0.00,,,0.00,,2013-08-16 01:21:00,
2013-08-15 21:26:00,67.0,51.0,30.15,SW,233,6.0,13.0,56,0.00,,,0.00,,2013-08-16 01:26:00,
2013-08-15 21:43:00,-999.0,-99.9,30.16,WSW,238,6.0,-999.0,-999,-99.99,,,-99.99,,2013-08-16 01:43:00,
2013-08-15 21:54:00,66.0,51.0,30.16,West,277,5.0,13.0,59,0.00,,,0.00,,2013-08-16 01:54:00,
2013-08-15 22:12:00,66.0,52.0,30.16,WSW,246,6.0,11.0,60,0.00,,,0.00,,2013-08-16 02:12:00,
2013-08-15 22:22:00,66.0,52.0,30.16,SW,225,3.0,12.0,61,0.00,,,0.00,,2013-08-16 02:22:00,
2013-08-15 22:44:00,65.0,52.0,30.17,West,266,3.0,10.0,62,0.00,,,0.00,,2013-08-16 02:44:00,
2013-08-15 22:52:00,65.0,52.0,30.17,WSW,255,3.0,11.0,63,0.00,,,0.00,,2013-08-16 02:52:00,
2013-08-15 23:11:00,64.0,52.0,30.17,West,265,2.0,8.0,65,0.00,,,0.00,,2013-08-16 03:11:00,
2013-08-15 23:22:00,64.0,52.0,30.17,WSW,246,5.0,12.0,66,0.00,,,0.00,,2013-08-16 03:22:00,
2013-08-15 23:43:00,63.0,52.0,30.17,SW,224,4.0,11.0,67,0.00,,,0.00,,2013-08-16 03:43:00,
2013-08-15 23:53:00,63.0,52.0,30.17,WSW,249,3.0,8.0,68,0.00,,,0.00,,2013-08-16 03:53:00,